Time;durP1;ratioP1;P1;durP2;ratioP2;P2;SDS_P1;SDS_P2;PMS_P1;PMS_P2;Temp;Humidity;BMP_temperature;BMP_pressure;BME280_temperature;BME280_humidity;BME280_pressure;Samples;Min_cycle;Max_cycle;Signal;HPM_P1;HPM_P2
2021/12/14 00:00:58;;;;;;;1.05;0.90;;;21.00;44.10;;;;;;5036327;28;20060;-71
2021/12/14 00:03:27;;;;;;;1.00;0.90;;;21.00;44.00;;;;;;5043022;28;20021;-71
2021/12/14 00:05:53;;;;;;;1.52;1.00;;;21.00;44.10;;;;;;5038697;28;20021;-71
2021/12/14 00:08:20;;;;;;;1.23;0.95;;;21.00;44.10;;;;;;5054564;28;20535;-71
2021/12/14 00:11:11;;;;;;;1.55;1.20;;;21.00;44.10;;;;;;5055560;28;20052;-71
2021/12/14 00:16:05;;;;;;;1.45;1.05;;;21.00;44.10;;;;;;5056299;28;20025;-71
2021/12/14 00:18:32;;;;;;;1.33;1.10;;;21.00;44.10;;;;;;5043648;28;20022;-71
2021/12/14 00:21:09;;;;;;;1.40;1.00;;;21.00;44.10;;;;;;5035621;28;20022;-71
2021/12/14 00:26:22;;;;;;;1.88;0.90;;;21.00;44.10;;;;;;5036180;28;20044;-71
2021/12/14 00:28:50;;;;;;;1.50;1.00;;;20.90;44.10;;;;;;5035550;28;20567;-71
2021/12/14 00:31:18;;;;;;;1.10;0.98;;;20.90;44.10;;;;;;5035390;28;20021;-71
2021/12/14 00:33:48;;;;;;;1.17;0.85;;;20.90;44.10;;;;;;5035012;28;20022;-71
2021/12/14 00:36:14;;;;;;;1.15;0.98;;;20.90;44.10;;;;;;5034351;28;20018;-71
2021/12/14 00:38:42;;;;;;;0.80;0.80;;;20.90;44.10;;;;;;5035713;28;20164;-71
2021/12/14 00:41:15;;;;;;;1.08;0.80;;;20.90;44.10;;;;;;5035995;28;20033;-71
2021/12/14 00:43:41;;;;;;;;;;;20.90;44.10;;;;;;5036025;28;20021;-71
2021/12/14 00:46:07;;;;;;;1.17;0.80;;;20.90;44.10;;;;;;5035356;28;20016;-71
2021/12/14 00:48:32;;;;;;;1.25;0.88;;;20.90;44.30;;;;;;5035351;28;20027;-71
2021/12/14 00:51:00;;;;;;;1.30;1.10;;;20.90;44.20;;;;;;5035319;28;20109;-71
2021/12/14 00:53:26;;;;;;;1.10;0.90;;;20.90;44.20;;;;;;5035741;28;20021;-71
2021/12/14 00:55:54;;;;;;;1.20;1.00;;;20.90;44.20;;;;;;5035648;28;20097;-71
2021/12/14 00:58:21;;;;;;;1.17;1.00;;;20.90;44.20;;;;;;5034058;28;20477;-71
2021/12/14 01:00:58;;;;;;;1.02;0.90;;;20.90;44.20;;;;;;5035501;28;20492;-71
2021/12/14 01:03:26;;;;;;;1.30;0.90;;;20.90;44.20;;;;;;5041712;28;20484;-71
2021/12/14 01:05:54;;;;;;;1.35;1.10;;;20.90;44.20;;;;;;5037915;28;20385;-70
2021/12/14 01:08:23;;;;;;;0.98;0.85;;;20.90;44.20;;;;;;5034361;28;20018;-70
2021/12/14 01:11:02;;;;;;;1.38;1.00;;;20.90;44.20;;;;;;5033869;28;20708;-70
2021/12/14 01:13:30;;;;;;;1.70;1.20;;;20.90;44.10;;;;;;5050547;28;20017;-71
2021/12/14 01:16:19;;;;;;;1.20;0.90;;;20.90;44.10;;;;;;5035263;28;20048;-71
2021/12/14 01:19:01;;;;;;;1.30;1.10;;;20.90;44.20;;;;;;5050039;28;20179;-71
2021/12/14 01:24:10;;;;;;;1.17;0.90;;;20.90;44.20;;;;;;5055289;28;20037;-71
2021/12/14 01:26:39;;;;;;;1.20;1.02;;;20.90;44.20;;;;;;5053584;28;20032;-71
2021/12/14 01:29:08;;;;;;;1.10;0.93;;;20.90;44.20;;;;;;5054872;28;20041;-71
2021/12/14 01:31:39;;;;;;;1.30;1.13;;;20.90;44.20;;;;;;5039832;28;20025;-71
2021/12/14 01:34:16;;;;;;;1.13;1.02;;;20.90;44.20;;;;;;5034796;28;20068;-71
2021/12/14 01:36:46;;;;;;;1.80;1.17;;;20.90;44.20;;;;;;5033577;28;20032;-71
2021/12/14 01:41:44;;;;;;;1.45;1.00;;;20.90;44.20;;;;;;5035231;28;20490;-71
2021/12/14 01:44:11;;;;;;;1.10;0.90;;;20.90;44.20;;;;;;5032769;28;20053;-71
2021/12/14 01:47:03;;;;;;;1.23;1.02;;;20.90;44.20;;;;;;5034666;28;20100;-71
2021/12/14 01:49:29;;;;;;;1.50;1.00;;;20.90;44.10;;;;;;5034647;28;20521;-71
2021/12/14 01:52:03;;;;;;;1.50;1.10;;;20.80;44.20;;;;;;5033105;28;20021;-71
2021/12/14 01:54:34;;;;;;;1.10;1.00;;;20.90;44.20;;;;;;5034391;28;20025;-71
2021/12/14 01:57:05;;;;;;;1.15;1.00;;;20.90;44.20;;;;;;5034609;28;20030;-71
2021/12/14 01:59:38;;;;;;;0.80;0.80;;;20.90;44.10;;;;;;5034779;28;20030;-71
2021/12/14 02:02:28;;;;;;;1.10;1.00;;;20.90;44.20;;;;;;5034634;28;20032;-71
2021/12/14 02:04:54;;;;;;;2.25;0.98;;;20.90;44.20;;;;;;5043955;28;20040;-71
2021/12/14 02:07:22;;;;;;;0.70;0.65;;;20.90;44.20;;;;;;5032841;28;20021;-71
2021/12/14 02:09:58;;;;;;;1.10;0.98;;;20.90;44.20;;;;;;5033865;28;20034;-71
2021/12/14 02:12:28;;;;;;;1.00;0.90;;;20.90;44.10;;;;;;5032973;28;20014;-71
2021/12/14 02:15:09;;;;;;;1.48;1.20;;;20.90;44.10;;;;;;5034291;28;20026;-71
2021/12/14 02:17:38;;;;;;;1.10;1.00;;;20.90;44.10;;;;;;5033288;28;20010;-71
2021/12/14 02:20:06;;;;;;;1.20;1.10;;;20.90;44.10;;;;;;5033908;28;20108;-71
2021/12/14 02:22:32;;;;;;;1.35;1.08;;;20.90;44.10;;;;;;5033157;28;20061;-71
2021/12/14 02:24:57;;;;;;;1.20;1.10;;;20.90;44.10;;;;;;5034008;28;20544;-71
2021/12/14 02:27:23;;;;;;;1.25;1.15;;;20.90;44.10;;;;;;5049503;28;20052;-71
2021/12/14 02:29:50;;;;;;;1.42;0.95;;;20.80;44.00;;;;;;5049370;28;20474;-71
2021/12/14 02:32:20;;;;;;;1.23;1.00;;;20.90;44.10;;;;;;5034373;28;20025;-71
2021/12/14 02:34:49;;;;;;;1.08;0.98;;;20.90;44.10;;;;;;5034491;28;20022;-71
2021/12/14 02:37:19;;;;;;;1.33;1.20;;;20.90;44.10;;;;;;5032790;28;20018;-71
2021/12/14 02:42:30;;;;;;;0.93;0.82;;;20.90;44.10;;;;;;5034843;28;20046;-70
2021/12/14 02:44:57;;;;;;;1.35;1.00;;;20.90;44.00;;;;;;5033129;28;20029;-70
2021/12/14 02:47:24;;;;;;;1.10;1.00;;;20.80;44.00;;;;;;5032890;28;20024;-71
2021/12/14 02:49:50;;;;;;;0.95;0.80;;;20.80;44.10;;;;;;5033704;28;20021;-71
2021/12/14 02:52:29;;;;;;;1.40;1.00;;;20.80;44.10;;;;;;5032598;28;20029;-71
2021/12/14 02:55:00;;;;;;;1.20;0.90;;;20.90;44.10;;;;;;5032355;28;20021;-71
2021/12/14 02:57:33;;;;;;;1.13;1.02;;;20.80;44.10;;;;;;5035612;28;20033;-71
2021/12/14 02:59:59;;;;;;;1.10;1.00;;;20.80;44.10;;;;;;5038056;28;20017;-71
2021/12/14 03:02:29;;;;;;;1.02;0.93;;;20.80;44.10;;;;;;5036530;28;20370;-70
2021/12/14 03:04:59;;;;;;;1.45;1.05;;;20.80;44.10;;;;;;5047343;28;20067;-70
2021/12/14 03:07:30;;;;;;;1.20;1.10;;;20.80;44.10;;;;;;5037108;28;20017;-70
2021/12/14 03:10:07;;;;;;;0.70;0.70;;;20.80;44.10;;;;;;5037666;28;20478;-70
2021/12/14 03:12:35;;;;;;;1.20;1.10;;;20.80;44.10;;;;;;5038074;28;20597;-70
2021/12/14 03:15:11;;;;;;;1.20;1.00;;;20.80;44.10;;;;;;5037920;28;20022;-70
2021/12/14 03:17:38;;;;;;;1.20;1.10;;;20.80;44.00;;;;;;5036777;28;20431;-70
2021/12/14 03:20:17;;;;;;;1.52;0.98;;;20.80;44.10;;;;;;5037806;28;20033;-70
2021/12/14 03:22:51;;;;;;;1.48;1.10;;;20.80;44.10;;;;;;5053185;28;20025;-69
2021/12/14 03:25:19;;;;;;;0.93;0.90;;;20.80;44.10;;;;;;5052662;28;20026;-70
2021/12/14 03:27:46;;;;;;;1.02;0.95;;;20.80;44.10;;;;;;5037174;28;20051;-70
2021/12/14 03:30:26;;;;;;;0.85;0.80;;;20.80;44.10;;;;;;5051792;28;20020;-70
2021/12/14 03:33:19;;;;;;;1.35;1.00;;;20.80;44.00;;;;;;5037155;28;20556;-70
2021/12/14 03:36:00;;;;;;;2.00;1.13;;;20.80;44.10;;;;;;5035506;28;20478;-70
2021/12/14 03:38:38;;;;;;;1.20;1.00;;;20.80;44.20;;;;;;5035556;28;20077;-70
2021/12/14 03:41:14;;;;;;;0.70;0.70;;;20.80;44.10;;;;;;5036979;28;20504;-70
2021/12/14 03:43:58;;;;;;;1.05;0.80;;;20.80;44.10;;;;;;5036901;28;20500;-70
2021/12/14 03:46:31;;;;;;;1.10;1.00;;;20.80;44.10;;;;;;5036065;28;20109;-70
2021/12/14 03:48:58;;;;;;;2.13;1.00;;;20.80;44.20;;;;;;5036636;28;20025;-70
2021/12/14 03:51:25;;;;;;;1.00;0.90;;;20.70;44.10;;;;;;5036397;28;20052;-70
2021/12/14 03:53:53;;;;;;;1.13;0.80;;;20.80;44.20;;;;;;5037114;28;20055;-70
2021/12/14 03:56:21;;;;;;;1.10;1.00;;;20.80;44.20;;;;;;5036564;28;20371;-70
2021/12/14 03:58:47;;;;;;;1.00;0.90;;;20.80;44.10;;;;;;5036720;28;20072;-70
2021/12/14 04:01:23;;;;;;;0.88;0.80;;;20.80;44.10;;;;;;5036399;28;20493;-70
2021/12/14 04:03:55;;;;;;;1.00;0.90;;;20.80;44.10;;;;;;5045318;28;20454;-70
2021/12/14 04:06:21;;;;;;;0.93;0.88;;;20.80;44.10;;;;;;5039569;28;20021;-70
2021/12/14 04:08:48;;;;;;;0.85;0.80;;;20.80;44.20;;;;;;5055628;28;20025;-70
2021/12/14 04:11:15;;;;;;;0.80;0.80;;;20.80;44.10;;;;;;5054778;28;20473;-70
2021/12/14 04:13:44;;;;;;;1.27;1.10;;;20.80;44.20;;;;;;5055100;28;20075;-70
2021/12/14 04:16:16;;;;;;;0.93;0.80;;;20.80;44.10;;;;;;5056092;28;20494;-70
2021/12/14 04:18:42;;;;;;;1.00;0.90;;;20.80;44.10;;;;;;5040711;28;20175;-70
2021/12/14 04:21:08;;;;;;;1.15;0.98;;;20.70;44.10;;;;;;5036252;28;20030;-70
2021/12/14 04:23:38;;;;;;;1.05;0.85;;;20.70;44.20;;;;;;5036168;28;20363;-70
2021/12/14 04:26:07;;;;;;;0.95;0.85;;;20.70;44.10;;;;;;5036441;28;20053;-70
2021/12/14 04:28:40;;;;;;;1.13;1.00;;;20.80;44.20;;;;;;5035585;28;20045;-70
2021/12/14 04:31:06;;;;;;;1.38;1.08;;;20.70;44.10;;;;;;5036000;28;20034;-70
2021/12/14 04:33:34;;;;;;;0.93;0.80;;;20.70;45.10;;;;;;5036081;28;20079;-70
2021/12/14 04:36:05;;;;;;;1.42;0.93;;;20.70;44.10;;;;;;5036124;28;20025;-70
2021/12/14 04:38:32;;;;;;;1.08;0.98;;;20.70;44.20;;;;;;5036150;28;20386;-70
2021/12/14 04:51:59;;;;;;;1.15;1.05;;;20.70;44.20;;;;;;5036611;28;20630;-70
2021/12/14 04:54:42;;;;;;;1.30;0.93;;;20.70;44.20;;;;;;5035481;28;20101;-70
2021/12/14 04:57:30;;;;;;;1.00;0.90;;;20.70;44.20;;;;;;5035593;28;20025;-70
2021/12/14 05:00:15;;;;;;;0.80;0.80;;;20.70;44.10;;;;;;5035756;28;20508;-70
2021/12/14 05:02:42;;;;;;;1.00;0.90;;;20.70;44.10;;;;;;5035708;28;20017;-70
2021/12/14 05:05:15;;;;;;;0.70;0.70;;;20.70;44.30;;;;;;5044481;28;20028;-70
2021/12/14 05:09:19;;;;;;;;;;;20.70;44.20;;;;;;5034670;28;20045;-70
2021/12/14 05:10:34;;;;;;;1.23;1.00;;;20.70;44.20;;;;;;5034846;28;20388;-70
2021/12/14 05:13:00;;;;;;;1.20;1.00;;;20.60;44.40;;;;;;5033945;28;20029;-70
2021/12/14 05:15:25;;;;;;;1.38;0.90;;;20.60;44.30;;;;;;5035202;28;20022;-70
2021/12/14 05:17:51;;;;;;;1.13;0.90;;;20.60;44.30;;;;;;5033615;28;20018;-70
2021/12/14 05:20:17;;;;;;;0.70;0.70;;;20.60;44.30;;;;;;5035010;28;20025;-70
2021/12/14 05:22:44;;;;;;;1.00;0.90;;;20.60;44.20;;;;;;5035138;28;20041;-70
2021/12/14 05:25:21;;;;;;;1.40;0.90;;;20.70;44.30;;;;;;5035006;28;20053;-70
2021/12/14 05:27:50;;;;;;;0.93;0.80;;;20.60;44.20;;;;;;5035293;28;20041;-70
2021/12/14 05:30:29;;;;;;;1.30;0.70;;;20.60;44.20;;;;;;5034484;28;20026;-70
2021/12/14 05:32:58;;;;;;;1.13;1.00;;;20.70;44.20;;;;;;5034867;28;20111;-70
2021/12/14 05:35:24;;;;;;;0.65;0.65;;;20.60;44.20;;;;;;5034884;28;20022;-70
2021/12/14 05:37:53;;;;;;;1.20;0.80;;;20.60;44.20;;;;;;5033699;28;20397;-70
2021/12/14 05:41:14;;;;;;;1.08;0.98;;;20.70;44.20;;;;;;5035137;28;20496;-71
2021/12/14 05:43:17;;;;;;;1.23;0.70;;;20.70;44.30;;;;;;5034065;28;20030;-70
2021/12/14 05:45:47;;;;;;;0.80;0.80;;;20.70;44.30;;;;;;5033181;28;20513;-70
2021/12/14 05:48:25;;;;;;;1.15;0.75;;;20.70;44.30;;;;;;5033705;28;20013;-70
2021/12/14 05:50:53;;;;;;;1.20;1.10;;;20.70;44.20;;;;;;5033610;28;20029;-70
2021/12/14 05:53:32;;;;;;;0.73;0.73;;;20.80;44.30;;;;;;5034287;28;20021;-70
2021/12/14 05:56:01;;;;;;;2.22;1.02;;;20.80;44.10;;;;;;5033772;28;20017;-70
2021/12/14 05:58:28;;;;;;;1.10;1.00;;;20.90;44.20;;;;;;5034480;28;20017;-70
2021/12/14 06:00:58;;;;;;;1.30;1.10;;;21.00;44.20;;;;;;5034709;28;20025;-70
2021/12/14 06:03:31;;;;;;;1.05;0.90;;;21.00;44.00;;;;;;5041126;28;20049;-70
2021/12/14 06:05:59;;;;;;;1.13;0.90;;;21.10;44.00;;;;;;5037993;28;20022;-70
2021/12/14 06:08:31;;;;;;;1.27;1.02;;;21.20;43.90;;;;;;5054152;28;20032;-70
2021/12/14 06:10:57;;;;;;;1.08;0.80;;;21.20;43.80;;;;;;5054198;28;20032;-70
2021/12/14 06:13:36;;;;;;;0.90;0.80;;;21.30;43.80;;;;;;5053951;28;20027;-70
2021/12/14 06:16:02;;;;;;;1.40;0.88;;;21.40;43.60;;;;;;5052925;28;20454;-70
2021/12/14 06:18:28;;;;;;;0.73;0.70;;;21.40;43.60;;;;;;5042198;28;20022;-70
2021/12/14 06:20:53;;;;;;;0.98;0.88;;;21.50;43.50;;;;;;5034100;28;20475;-70
2021/12/14 06:23:26;;;;;;;0.90;0.90;;;21.60;43.50;;;;;;5033994;28;20124;-70
2021/12/14 06:25:52;;;;;;;0.80;0.70;;;21.60;43.30;;;;;;5032981;28;20060;-70
2021/12/14 06:28:27;;;;;;;1.20;0.95;;;21.70;43.30;;;;;;5033821;28;20049;-70
2021/12/14 06:30:55;;;;;;;1.00;0.90;;;21.80;43.20;;;;;;5034480;28;20033;-70
2021/12/14 06:33:21;;;;;;;0.90;0.70;;;21.80;43.20;;;;;;5036662;28;20029;-70
2021/12/14 06:35:50;;;;;;;0.90;0.80;;;21.80;43.10;;;;;;5038339;28;20025;-70
2021/12/14 06:38:33;;;;;;;1.50;0.90;;;21.90;43.00;;;;;;5037862;28;20030;-70
2021/12/14 06:41:15;;;;;;;1.02;0.90;;;21.90;42.90;;;;;;5037831;28;20032;-70
2021/12/14 06:43:47;;;;;;;1.00;0.80;;;22.00;42.80;;;;;;5037608;28;20478;-70
2021/12/14 06:46:29;;;;;;;1.20;0.88;;;22.00;42.80;;;;;;5037938;28;20068;-70
2021/12/14 06:49:01;;;;;;;0.88;0.80;;;22.00;42.80;;;;;;5037685;28;20018;-70
2021/12/14 06:51:31;;;;;;;0.82;0.82;;;22.00;42.80;;;;;;5037719;28;20028;-70
2021/12/14 06:54:00;;;;;;;1.10;1.00;;;22.10;42.80;;;;;;5037610;28;20021;-70
2021/12/14 06:56:28;;;;;;;0.68;0.65;;;22.10;42.70;;;;;;5037631;28;20053;-70
2021/12/14 06:58:57;;;;;;;1.33;0.90;;;22.20;42.80;;;;;;5037414;28;20427;-70
2021/12/14 07:01:28;;;;;;;0.98;0.80;;;22.20;42.70;;;;;;5037006;28;20029;-70
2021/12/14 07:03:58;;;;;;;1.05;0.77;;;22.20;42.70;;;;;;5047066;28;20017;-70
2021/12/14 07:06:27;;;;;;;1.13;1.00;;;22.30;42.60;;;;;;5041038;28;20021;-70
2021/12/14 07:08:57;;;;;;;0.80;0.70;;;22.30;42.50;;;;;;5056950;28;20079;-70
2021/12/14 07:11:24;;;;;;;1.23;0.90;;;22.30;42.50;;;;;;5055896;28;20088;-70
2021/12/14 07:13:52;;;;;;;1.20;0.90;;;22.30;42.50;;;;;;5057188;28;20044;-70
2021/12/14 07:16:27;;;;;;;1.15;0.90;;;22.40;42.40;;;;;;5057373;28;20021;-70
2021/12/14 07:18:55;;;;;;;1.25;0.73;;;22.40;42.40;;;;;;5041405;28;20033;-70
2021/12/14 07:21:35;;;;;;;1.60;0.90;;;22.40;42.30;;;;;;5036740;28;20029;-70
2021/12/14 07:24:20;;;;;;;1.02;0.80;;;22.50;42.20;;;;;;5036684;28;20026;-70
2021/12/14 07:26:46;;;;;;;1.02;0.80;;;22.50;42.20;;;;;;5036559;28;20429;-70
2021/12/14 07:29:11;;;;;;;1.50;0.90;;;22.50;42.20;;;;;;5036810;28;20049;-70
2021/12/14 07:31:41;;;;;;;0.80;0.70;;;22.50;42.20;;;;;;5036805;28;20101;-70
2021/12/14 07:34:07;;;;;;;0.70;0.70;;;22.60;42.20;;;;;;5037313;28;20044;-70
2021/12/14 07:36:36;;;;;;;1.13;0.95;;;22.60;42.20;;;;;;5036959;28;20057;-70
2021/12/14 07:39:07;;;;;;;0.88;0.88;;;22.60;42.20;;;;;;5036799;28;20017;-70
2021/12/14 07:41:48;;;;;;;0.68;0.65;;;22.60;42.10;;;;;;5036963;28;20041;-70
2021/12/14 07:44:23;;;;;;;1.00;0.90;;;22.70;42.10;;;;;;5036000;28;20025;-70
2021/12/14 07:46:52;;;;;;;0.88;0.88;;;22.70;42.20;;;;;;5036659;28;20030;-70
2021/12/14 07:49:32;;;;;;;1.70;1.05;;;22.70;42.10;;;;;;5036384;28;20025;-70
2021/12/14 07:52:00;;;;;;;1.17;0.80;;;22.70;42.10;;;;;;5035698;28;20093;-70
2021/12/14 07:54:43;;;;;;;0.82;0.80;;;22.70;42.10;;;;;;5037158;28;20029;-70
2021/12/14 07:57:34;;;;;;;0.98;0.80;;;22.70;42.00;;;;;;5036981;28;20104;-70
2021/12/14 08:00:10;;;;;;;0.98;0.90;;;22.70;42.10;;;;;;5030142;28;20486;-70
2021/12/14 08:02:38;;;;;;;1.00;0.90;;;22.70;41.90;;;;;;5036595;28;20063;-70
2021/12/14 08:05:22;;;;;;;1.08;0.88;;;22.70;41.90;;;;;;5047064;28;20043;-70
2021/12/14 08:08:15;;;;;;;0.93;0.80;;;22.80;41.90;;;;;;5056554;28;20095;-70
2021/12/14 08:10:49;;;;;;;1.15;0.80;;;22.80;41.90;;;;;;5055581;28;20029;-70
2021/12/14 08:13:22;;;;;;;0.70;0.65;;;22.80;42.00;;;;;;5055159;28;20017;-70
2021/12/14 08:15:53;;;;;;;1.00;0.80;;;22.80;41.90;;;;;;5057154;28;20021;-70
2021/12/14 08:18:31;;;;;;;0.80;0.70;;;22.80;42.00;;;;;;5046092;28;20013;-70
2021/12/14 08:21:22;;;;;;;1.00;0.90;;;22.80;41.90;;;;;;5035452;28;20060;-70
2021/12/14 08:24:00;;;;;;;0.68;0.68;;;22.90;41.80;;;;;;5033077;28;20457;-70
2021/12/14 08:26:37;;;;;;;1.15;0.98;;;22.90;41.80;;;;;;5037373;28;20029;-70
2021/12/14 08:29:24;;;;;;;0.77;0.68;;;22.90;41.80;;;;;;5035656;28;20057;-70
2021/12/14 08:31:55;;;;;;;1.00;0.90;;;22.90;41.80;;;;;;5053822;28;20163;-70
2021/12/14 08:34:26;;;;;;;1.13;0.80;;;22.90;41.90;;;;;;5055858;28;20481;-70
2021/12/14 08:36:59;;;;;;;1.10;0.95;;;22.90;41.90;;;;;;5057371;28;20029;-70
2021/12/14 08:39:47;;;;;;;1.10;0.90;;;22.90;41.80;;;;;;5057098;28;20021;-70
2021/12/14 08:42:35;;;;;;;1.15;0.95;;;22.90;41.70;;;;;;5056473;28;20473;-70
2021/12/14 08:45:24;;;;;;;1.33;1.10;;;23.00;41.70;;;;;;5057638;28;20025;-70
2021/12/14 08:47:56;;;;;;;0.88;0.80;;;22.90;41.70;;;;;;5057403;28;20030;-71
2021/12/14 08:50:22;;;;;;;1.55;1.00;;;22.90;41.80;;;;;;5056515;28;20037;-70
2021/12/14 08:52:50;;;;;;;1.40;1.00;;;22.90;41.80;;;;;;5056586;28;20027;-70
2021/12/14 08:55:18;;;;;;;1.30;0.95;;;22.90;41.60;;;;;;5056860;28;20020;-69
2021/12/14 08:57:45;;;;;;;1.60;1.17;;;23.00;41.60;;;;;;5056738;28;20052;-70
2021/12/14 09:00:36;;;;;;;1.88;1.25;;;23.00;41.60;;;;;;5058539;28;20020;-70
2021/12/14 09:03:04;;;;;;;1.27;1.10;;;23.00;41.60;;;;;;5058602;28;20043;-70
2021/12/14 09:05:35;;;;;;;1.10;0.95;;;23.00;41.70;;;;;;5043190;28;20067;-70
2021/12/14 09:08:01;;;;;;;1.33;1.10;;;23.00;41.80;;;;;;5056286;28;20021;-70
2021/12/14 09:10:30;;;;;;;2.65;1.00;;;23.00;41.70;;;;;;5059853;28;20052;-70
2021/12/14 09:13:01;;;;;;;1.60;1.10;;;23.00;41.60;;;;;;5058623;28;20017;-70
2021/12/14 09:15:33;;;;;;;2.20;1.20;;;23.10;41.60;;;;;;5057348;28;20537;-70
2021/12/14 09:17:59;;;;;;;1.50;1.20;;;23.10;41.60;;;;;;5059767;28;20107;-70
2021/12/14 09:20:36;;;;;;;3.65;1.33;;;23.00;41.50;;;;;;5061939;28;20070;-70
2021/12/14 09:23:10;;;;;;;2.03;1.27;;;23.10;41.50;;;;;;5055927;28;20033;-70
2021/12/14 09:25:37;;;;;;;3.47;1.92;;;23.10;41.50;;;;;;5049163;28;20028;-70
2021/12/14 09:28:05;;;;;;;2.83;1.95;;;23.10;41.50;;;;;;5051019;28;20155;-70
2021/12/14 09:30:36;;;;;;;3.35;2.25;;;23.10;41.40;;;;;;5046713;28;20021;-70
2021/12/14 09:33:03;;;;;;;2.28;1.80;;;23.10;41.30;;;;;;5059850;28;20019;-70
2021/12/14 09:35:35;;;;;;;2.72;1.90;;;23.10;41.30;;;;;;5053123;28;20049;-70
2021/12/14 09:38:05;;;;;;;2.28;2.03;;;23.10;41.30;;;;;;5052329;28;20481;-70
2021/12/14 09:40:37;;;;;;;3.33;2.15;;;23.00;41.20;;;;;;5045729;28;20021;-70
2021/12/14 09:43:03;;;;;;;3.25;2.35;;;23.00;41.10;;;;;;5046657;28;20059;-70
2021/12/14 09:45:39;;;;;;;3.15;2.45;;;23.10;41.20;;;;;;5053462;28;20021;-70
2021/12/14 09:48:06;;;;;;;4.13;2.53;;;23.10;41.20;;;;;;5064325;28;20566;-70
2021/12/14 09:50:36;;;;;;;3.20;2.40;;;23.00;41.10;;;;;;5059267;28;20023;-70
2021/12/14 09:53:06;;;;;;;4.13;2.60;;;23.00;41.20;;;;;;5059818;28;20028;-70
2021/12/14 09:55:36;;;;;;;3.60;2.83;;;23.00;41.20;;;;;;5059545;28;20108;-70
2021/12/14 09:58:08;;;;;;;3.28;2.47;;;23.00;41.20;;;;;;5064258;28;20025;-70
2021/12/14 10:00:47;;;;;;;3.53;2.70;;;23.00;41.20;;;;;;5062496;28;20025;-70
2021/12/14 10:03:14;;;;;;;3.45;2.60;;;23.00;41.20;;;;;;5054797;28;20099;-70
2021/12/14 10:05:49;;;;;;;5.88;2.92;;;23.00;41.30;;;;;;5064367;28;20074;-70
2021/12/14 10:08:19;;;;;;;4.90;3.00;;;23.00;41.20;;;;;;5054482;28;20578;-70
2021/12/14 10:10:59;;;;;;;4.38;2.90;;;23.00;41.20;;;;;;5060138;28;20052;-70
2021/12/14 10:13:25;;;;;;;5.05;3.22;;;23.00;41.20;;;;;;5062478;28;20466;-70
2021/12/14 10:15:54;;;;;;;4.53;2.80;;;23.00;41.20;;;;;;5063814;28;20009;-70
2021/12/14 10:18:36;;;;;;;4.78;3.38;;;23.00;41.30;;;;;;5062184;28;20028;-70
2021/12/14 10:21:08;;;;;;;;;;;23.00;41.10;;;;;;5054550;28;20221;-70
2021/12/14 10:23:35;;;;;;;5.65;3.08;;;22.90;41.10;;;;;;5060704;28;20257;-70
2021/12/14 10:26:02;;;;;;;3.22;2.80;;;22.90;41.50;;;;;;5059139;28;20028;-70
2021/12/14 10:28:34;;;;;;;4.03;2.90;;;22.90;41.40;;;;;;5058559;28;20052;-70
2021/12/14 10:31:11;;;;;;;5.07;3.30;;;22.90;41.30;;;;;;5047461;28;20060;-70
2021/12/14 10:33:38;;;;;;;4.88;3.10;;;22.90;41.30;;;;;;5060963;28;20381;-70
2021/12/14 10:36:17;;;;;;;4.35;3.30;;;22.90;41.30;;;;;;5060402;28;20019;-70
2021/12/14 10:39:04;;;;;;;5.05;3.20;;;22.90;41.30;;;;;;5062443;28;20041;-70
2021/12/14 10:44:13;;;;;;;4.50;3.45;;;22.90;41.30;;;;;;5059801;28;20032;-70
2021/12/14 10:46:45;;;;;;;4.82;3.47;;;22.90;41.40;;;;;;5060808;28;20033;-70
2021/12/14 10:49:13;;;;;;;6.32;3.28;;;22.90;41.30;;;;;;5063328;28;20073;-70
2021/12/14 10:51:41;;;;;;;4.70;3.80;;;22.90;41.40;;;;;;5060482;28;20048;-70
2021/12/14 10:54:12;;;;;;;4.50;3.33;;;22.90;41.40;;;;;;5059569;28;20474;-70
2021/12/14 10:56:47;;;;;;;4.35;3.22;;;22.90;41.50;;;;;;5061370;28;20080;-70
2021/12/14 10:59:16;;;;;;;4.15;3.30;;;22.90;41.50;;;;;;5067151;28;20021;-70
2021/12/14 11:01:49;;;;;;;4.53;3.45;;;22.90;42.50;;;;;;5064891;28;20028;-70
2021/12/14 11:04:16;;;;;;;4.90;3.90;;;22.90;41.50;;;;;;5064052;28;20017;-70
2021/12/14 11:06:45;;;;;;;4.32;3.13;;;23.00;41.60;;;;;;5060833;28;20053;-70
2021/12/14 11:12:08;;;;;;;5.28;3.92;;;23.00;41.70;;;;;;5068568;28;20393;-70
2021/12/14 11:14:37;;;;;;;4.28;3.38;;;23.00;41.80;;;;;;5065308;28;20036;-71
2021/12/14 11:19:53;;;;;;;5.07;3.33;;;23.00;42.10;;;;;;5063152;28;20083;-70
2021/12/14 11:22:21;;;;;;;5.15;3.80;;;23.00;42.20;;;;;;5066806;28;20473;-70
2021/12/14 11:24:53;;;;;;;5.10;3.60;;;23.00;42.30;;;;;;5056646;28;20101;-70
2021/12/14 11:27:25;;;;;;;4.85;3.92;;;23.00;42.40;;;;;;5065363;28;20389;-70
2021/12/14 11:30:06;;;;;;;5.20;3.90;;;23.00;42.50;;;;;;5053570;28;20040;-70
2021/12/14 11:32:31;;;;;;;4.80;3.40;;;23.00;42.60;;;;;;5059957;28;20430;-70
2021/12/14 11:34:57;;;;;;;4.20;3.25;;;23.00;42.60;;;;;;5066967;28;20074;-70
2021/12/14 11:37:33;;;;;;;5.40;4.03;;;23.00;42.60;;;;;;5064375;28;20503;-70
2021/12/14 11:40:01;;;;;;;4.93;3.90;;;23.00;42.70;;;;;;5062279;28;20385;-70
2021/12/14 11:42:29;;;;;;;5.78;3.88;;;23.00;42.70;;;;;;5060470;28;20469;-70
2021/12/14 11:45:17;;;;;;;5.65;3.75;;;23.00;42.80;;;;;;5057495;28;20096;-70
2021/12/14 11:47:53;;;;;;;4.88;3.58;;;23.00;42.80;;;;;;5063724;28;20401;-70
2021/12/14 11:50:32;;;;;;;6.00;3.95;;;23.00;42.90;;;;;;5063383;28;20025;-70
2021/12/14 11:53:09;;;;;;;5.57;4.07;;;23.10;43.00;;;;;;5064922;28;20024;-71
2021/12/14 11:55:51;;;;;;;5.40;3.75;;;23.00;42.90;;;;;;5062099;28;20095;-70
2021/12/14 11:58:19;;;;;;;5.00;4.07;;;23.10;43.10;;;;;;5061978;28;20025;-70
2021/12/14 12:01:14;;;;;;;7.45;4.28;;;23.10;43.10;;;;;;5061399;28;20174;-70
2021/12/14 12:03:41;;;;;;;5.70;4.57;;;23.10;43.30;;;;;;5060117;28;20171;-70
2021/12/14 12:09:28;;;;;;;5.10;3.88;;;23.10;43.10;;;;;;5061287;28;20029;-71
2021/12/14 12:09:50;;;;;;;5.93;4.03;;;23.10;43.00;;;;;;5056893;28;20067;-70
2021/12/14 12:12:25;;;;;;;5.35;3.92;;;23.10;43.10;;;;;;5061171;28;20028;-70
2021/12/14 12:14:56;;;;;;;6.95;4.78;;;23.00;43.00;;;;;;5053316;28;20028;-70
2021/12/14 12:17:47;;;;;;;7.07;5.20;;;23.10;43.10;;;;;;5046339;28;20025;-70
2021/12/14 12:20:18;;;;;;;5.20;4.30;;;23.10;43.00;;;;;;5048089;28;20033;-70
2021/12/14 12:22:54;;;;;;;6.30;4.90;;;23.00;43.00;;;;;;5048948;28;20024;-70
2021/12/14 12:25:30;;;;;;;7.68;5.50;;;23.00;43.00;;;;;;5056393;28;20020;-70
2021/12/14 12:28:06;;;;;;;7.43;4.50;;;23.10;43.00;;;;;;5056839;28;20044;-70
2021/12/14 12:31:05;;;;;;;7.05;4.57;;;23.10;43.00;;;;;;5053011;28;20029;-70
2021/12/14 12:33:44;;;;;;;6.35;4.60;;;23.10;43.00;;;;;;5044290;28;20033;-70
2021/12/14 12:36:28;;;;;;;7.18;5.05;;;23.10;43.00;;;;;;5053544;28;20025;-70
2021/12/14 12:39:17;;;;;;;6.95;5.10;;;23.10;43.00;;;;;;5046326;28;20020;-70
2021/12/14 12:41:47;;;;;;;6.63;4.90;;;23.10;42.90;;;;;;5048820;28;20021;-71
2021/12/14 12:44:21;;;;;;;7.68;5.32;;;23.00;42.90;;;;;;5045635;28;20473;-71
2021/12/14 12:46:54;;;;;;;7.88;5.95;;;23.00;42.90;;;;;;5050833;28;20493;-71
2021/12/14 12:49:21;;;;;;;;;;;23.00;42.90;;;;;;5060772;28;20029;-71
2021/12/14 12:51:57;;;;;;;6.85;5.35;;;23.00;42.90;;;;;;5050362;28;20365;-71
2021/12/14 12:54:44;;;;;;;9.52;6.45;;;22.90;43.00;;;;;;5057491;28;20029;-71
2021/12/14 12:57:33;;;;;;;8.68;6.15;;;22.90;43.00;;;;;;5055575;28;20028;-71
2021/12/14 13:00:16;;;;;;;8.40;6.00;;;22.90;42.80;;;;;;5058308;28;20020;-70
2021/12/14 13:02:53;;;;;;;8.48;6.30;;;22.90;42.90;;;;;;5062579;28;20033;-71
2021/12/14 13:05:27;;;;;;;9.68;6.30;;;22.90;43.00;;;;;;5052449;28;20036;-71
2021/12/14 13:08:02;;;;;;;8.57;6.63;;;22.90;43.00;;;;;;5055466;28;20614;-71
2021/12/14 13:10:49;;;;;;;8.77;6.45;;;22.90;42.90;;;;;;5052093;28;20021;-70
2021/12/14 13:13:28;;;;;;;11.20;7.20;;;22.90;42.80;;;;;;5045804;28;20008;-70
2021/12/14 13:16:07;;;;;;;8.82;6.75;;;22.90;42.90;;;;;;5061889;28;20040;-70
2021/12/14 13:18:40;;;;;;;10.85;7.20;;;22.90;42.90;;;;;;5046954;28;20510;-70
2021/12/14 13:21:17;;;;;;;10.93;7.32;;;22.90;43.00;;;;;;5040458;28;20029;-71
2021/12/14 13:24:15;;;;;;;10.25;6.90;;;22.90;42.90;;;;;;5050872;28;20021;-70
2021/12/14 13:26:58;;;;;;;8.90;7.10;;;22.90;42.80;;;;;;5053585;28;20097;-71
2021/12/14 13:29:27;;;;;;;9.95;7.28;;;22.90;42.90;;;;;;5049387;28;20129;-71
2021/12/14 13:31:55;;;;;;;11.95;7.43;;;22.80;42.90;;;;;;5048289;28;20509;-71
2021/12/14 13:34:26;;;;;;;10.50;7.53;;;22.90;43.00;;;;;;5063998;28;20024;-71
2021/12/14 13:36:54;;;;;;;9.90;7.85;;;22.90;43.00;;;;;;5063131;28;20089;-71
2021/12/14 13:39:20;;;;;;;12.30;7.97;;;22.80;42.90;;;;;;5061582;28;20036;-71
2021/12/14 13:42:05;;;;;;;12.85;7.45;;;22.80;42.90;;;;;;5055466;28;20086;-71
2021/12/14 13:44:34;;;;;;;12.75;8.38;;;22.90;42.90;;;;;;5053804;28;20573;-72
2021/12/14 13:47:03;;;;;;;11.55;8.50;;;22.90;43.00;;;;;;5043679;28;20561;-71
2021/12/14 13:49:29;;;;;;;11.60;7.90;;;22.80;42.90;;;;;;5044685;28;20021;-72